Time;durP1;ratioP1;P1;durP2;ratioP2;P2;SDS_P1;SDS_P2;PMS_P1;PMS_P2;Temp;Humidity;BMP_temperature;BMP_pressure;BME280_temperature;BME280_humidity;BME280_pressure;Samples;Min_cycle;Max_cycle;Signal;HPM_P1;HPM_P2
2022/01/01 04:02:28;;;;;;;3.03;2.37;;;11.50;82.20;;;;;;5213234;22;20491;-75
2022/01/01 04:04:54;;;;;;;3.30;2.73;;;11.40;82.40;;;;;;5034114;28;20822;-75
2022/01/01 04:07:21;;;;;;;3.40;2.20;;;11.40;82.60;;;;;;5034035;28;20938;-75
2022/01/01 04:09:48;;;;;;;3.10;2.07;;;11.40;82.30;;;;;;5033967;28;20934;-75
2022/01/01 04:12:14;;;;;;;3.20;2.00;;;11.40;82.20;;;;;;5034119;28;20459;-74
2022/01/01 04:14:42;;;;;;;3.00;1.80;;;11.40;82.00;;;;;;5063480;22;20485;-75
2022/01/01 04:17:10;;;;;;;2.70;1.90;;;11.40;81.90;;;;;;5053858;28;20937;-74
2022/01/01 04:19:39;;;;;;;2.80;1.70;;;11.20;82.20;;;;;;5054715;28;20442;-74
2022/01/01 04:22:08;;;;;;;2.90;1.93;;;11.20;81.90;;;;;;5054109;28;20469;-76
2022/01/01 04:24:35;;;;;;;3.33;2.10;;;11.20;82.40;;;;;;5054028;28;20538;-76
2022/01/01 04:27:01;;;;;;;3.03;1.87;;;11.00;82.00;;;;;;5054027;28;20438;-77
2022/01/01 04:29:28;;;;;;;2.57;1.80;;;10.90;82.60;;;;;;5054052;28;20450;-77
2022/01/01 04:31:55;;;;;;;2.73;1.70;;;10.90;82.20;;;;;;5053961;28;20452;-77
2022/01/01 04:34:22;;;;;;;2.63;1.53;;;10.90;82.00;;;;;;5053490;28;20462;-77
2022/01/01 04:36:59;;;;;;;3.43;1.90;;;10.90;81.70;;;;;;5053254;28;20431;-77
2022/01/01 04:39:26;;;;;;;2.90;1.63;;;10.90;81.30;;;;;;5053843;28;20430;-76
2022/01/01 04:41:53;;;;;;;2.87;1.70;;;11.00;80.20;;;;;;5053757;28;20438;-76
2022/01/01 04:44:20;;;;;;;2.70;1.63;;;11.10;80.20;;;;;;5053603;28;20489;-77
2022/01/01 04:46:46;;;;;;;2.80;1.70;;;11.20;79.80;;;;;;5053664;28;20457;-76
2022/01/01 04:49:13;;;;;;;3.30;2.00;;;11.20;79.90;;;;;;5053701;28;20868;-77
2022/01/01 04:51:40;;;;;;;2.67;1.67;;;11.30;79.90;;;;;;5053743;28;20447;-77
2022/01/01 04:54:15;;;;;;;2.80;1.83;;;11.30;79.50;;;;;;5053741;28;20439;-76
2022/01/01 04:56:43;;;;;;;3.20;2.00;;;11.20;79.20;;;;;;5053855;28;20436;-76
2022/01/01 04:59:10;;;;;;;3.47;2.10;;;11.10;78.90;;;;;;5053842;28;20930;-77
2022/01/01 05:01:37;;;;;;;2.90;1.97;;;10.90;79.20;;;;;;5053473;28;20504;-77
2022/01/01 05:04:04;;;;;;;2.80;1.70;;;10.70;79.90;;;;;;5053231;28;20847;-76
2022/01/01 05:06:31;;;;;;;3.77;2.17;;;10.70;80.30;;;;;;5053606;28;20871;-77
2022/01/01 05:08:57;;;;;;;3.07;2.00;;;10.80;80.00;;;;;;5053771;28;20446;-77
2022/01/01 05:11:26;;;;;;;3.40;1.90;;;10.70;80.20;;;;;;5053807;28;20450;-77
2022/01/01 05:13:53;;;;;;;2.43;1.30;;;10.60;80.40;;;;;;5054001;28;20454;-77
2022/01/01 05:16:20;;;;;;;3.10;2.00;;;10.60;80.10;;;;;;5052874;28;20993;-77
2022/01/01 05:18:47;;;;;;;3.00;2.10;;;10.60;80.40;;;;;;5053593;28;20455;-77
2022/01/01 05:21:14;;;;;;;3.37;2.17;;;10.40;80.70;;;;;;5053410;28;20457;-76
2022/01/01 05:23:41;;;;;;;2.90;2.07;;;10.30;80.80;;;;;;5053365;28;20482;-76
2022/01/01 05:26:07;;;;;;;2.63;1.80;;;10.20;80.80;;;;;;5053285;28;20875;-77
2022/01/01 05:28:35;;;;;;;3.00;1.97;;;10.20;80.90;;;;;;5053370;28;20497;-77
2022/01/01 05:31:02;;;;;;;3.60;2.53;;;10.30;80.80;;;;;;5053261;28;20453;-77
2022/01/01 05:33:29;;;;;;;3.00;1.83;;;10.30;80.60;;;;;;5053210;28;20446;-77
2022/01/01 05:35:55;;;;;;;3.10;2.10;;;10.20;80.30;;;;;;5053145;28;20471;-77
2022/01/01 05:38:22;;;;;;;3.00;1.90;;;10.30;80.50;;;;;;5052879;28;20908;-76
2022/01/01 05:40:49;;;;;;;3.30;2.50;;;10.30;80.50;;;;;;5053195;28;20867;-76
2022/01/01 05:43:15;;;;;;;3.37;2.40;;;10.30;80.30;;;;;;5052755;28;21001;-76
2022/01/01 05:45:43;;;;;;;3.10;2.10;;;10.20;80.50;;;;;;5052764;28;21051;-77
2022/01/01 05:48:11;;;;;;;2.93;1.80;;;10.20;80.50;;;;;;5054847;28;20499;-77
2022/01/01 05:50:37;;;;;;;3.37;2.40;;;10.30;80.30;;;;;;5057047;28;20438;-77
2022/01/01 05:53:05;;;;;;;2.97;2.00;;;10.20;80.20;;;;;;5057005;28;20492;-77
2022/01/01 05:55:31;;;;;;;3.17;1.77;;;10.20;80.00;;;;;;5056818;28;20501;-77
2022/01/01 05:57:58;;;;;;;3.30;1.80;;;10.20;80.20;;;;;;5056900;28;20446;-77
2022/01/01 06:00:25;;;;;;;2.63;1.90;;;10.20;80.10;;;;;;5056880;28;20495;-77
2022/01/01 06:02:53;;;;;;;2.80;1.90;;;10.10;80.10;;;;;;5056783;28;20874;-77
2022/01/01 06:05:19;;;;;;;2.70;1.60;;;10.20;80.30;;;;;;5056794;28;20900;-76
2022/01/01 06:07:46;;;;;;;2.73;1.60;;;10.20;80.20;;;;;;5056697;28;20450;-77
2022/01/01 06:10:13;;;;;;;2.60;1.70;;;10.30;79.80;;;;;;5056745;28;20539;-77
2022/01/01 06:12:40;;;;;;;3.10;1.93;;;10.30;79.90;;;;;;5056621;28;20500;-77
2022/01/01 06:15:08;;;;;;;3.17;2.07;;;10.20;80.00;;;;;;5056372;28;20474;-77
2022/01/01 06:17:34;;;;;;;3.13;1.40;;;10.20;80.60;;;;;;5056630;28;20515;-77
2022/01/01 06:20:04;;;;;;;2.90;1.67;;;10.20;80.60;;;;;;5056132;28;20933;-77
2022/01/01 06:22:30;;;;;;;3.77;2.27;;;10.20;80.60;;;;;;5056487;28;20438;-77
2022/01/01 06:24:57;;;;;;;3.30;1.93;;;10.10;81.00;;;;;;5055890;28;20490;-76
2022/01/01 06:27:24;;;;;;;2.60;1.77;;;10.00;81.30;;;;;;5056276;28;20450;-77
2022/01/01 06:29:51;;;;;;;2.97;1.90;;;10.10;81.30;;;;;;5056269;28;20446;-77
2022/01/01 06:32:18;;;;;;;3.10;2.00;;;10.00;81.40;;;;;;5056331;28;20541;-76
2022/01/01 06:34:44;;;;;;;3.00;2.20;;;10.10;81.80;;;;;;5056361;28;20471;-77
2022/01/01 06:37:12;;;;;;;3.40;2.00;;;10.10;81.20;;;;;;5056178;28;20504;-77
2022/01/01 06:39:39;;;;;;;3.30;2.40;;;10.00;81.40;;;;;;5055774;28;20793;-77
2022/01/01 06:42:06;;;;;;;3.70;2.40;;;10.00;81.10;;;;;;5056079;28;20451;-77
2022/01/01 06:44:33;;;;;;;3.10;1.80;;;10.00;81.80;;;;;;5056731;28;20493;-77
2022/01/01 06:46:59;;;;;;;3.10;2.17;;;10.00;81.70;;;;;;5056013;28;20447;-77
2022/01/01 06:49:26;;;;;;;2.97;2.30;;;10.00;81.50;;;;;;5056069;28;20496;-77
2022/01/01 06:51:53;;;;;;;3.20;2.13;;;9.90;81.50;;;;;;5055915;28;20458;-77
2022/01/01 06:54:21;;;;;;;3.93;2.60;;;9.90;82.00;;;;;;5055783;28;20519;-77
2022/01/01 06:56:48;;;;;;;3.20;2.60;;;9.90;81.90;;;;;;5055756;28;20442;-77
2022/01/01 06:59:14;;;;;;;3.20;2.40;;;10.00;81.70;;;;;;5055563;28;20513;-77
2022/01/01 07:01:41;;;;;;;2.90;1.90;;;9.90;81.50;;;;;;5055783;28;20454;-76
2022/01/01 07:04:07;;;;;;;3.13;2.10;;;9.90;81.30;;;;;;5055608;28;20482;-77
2022/01/01 07:06:34;;;;;;;2.93;2.03;;;10.00;81.30;;;;;;5055328;28;20992;-77
2022/01/01 07:09:01;;;;;;;2.93;1.93;;;10.00;81.10;;;;;;5055747;28;20446;-77
2022/01/01 07:11:29;;;;;;;3.37;1.83;;;10.00;80.80;;;;;;5055501;28;20447;-77
2022/01/01 07:13:56;;;;;;;2.73;1.70;;;10.00;81.00;;;;;;5055576;28;20446;-77
2022/01/01 07:16:23;;;;;;;3.07;2.00;;;10.00;80.70;;;;;;5055488;28;20482;-77
2022/01/01 07:18:49;;;;;;;3.57;2.90;;;10.10;80.70;;;;;;5055374;28;20446;-77
2022/01/01 07:21:16;;;;;;;4.50;3.80;;;10.20;80.20;;;;;;5055042;28;20492;-77
2022/01/01 07:23:43;;;;;;;4.63;3.70;;;10.20;80.10;;;;;;5054887;28;20993;-77
2022/01/01 07:26:10;;;;;;;4.93;4.00;;;10.30;80.10;;;;;;5055175;28;20546;-77
2022/01/01 07:28:38;;;;;;;5.27;4.77;;;10.20;80.00;;;;;;5055146;28;20973;-77
2022/01/01 07:31:04;;;;;;;6.10;4.20;;;10.30;80.30;;;;;;5055224;28;20561;-77
2022/01/01 07:33:31;;;;;;;4.07;3.50;;;10.30;79.80;;;;;;5055078;28;20489;-77
2022/01/01 07:35:59;;;;;;;4.90;4.40;;;10.20;80.10;;;;;;5054939;28;20462;-77
2022/01/01 07:38:25;;;;;;;4.30;3.40;;;10.30;80.10;;;;;;5054945;28;20508;-77
2022/01/01 07:40:53;;;;;;;4.93;4.10;;;10.30;79.90;;;;;;5054746;28;20504;-77
2022/01/01 07:43:20;;;;;;;4.97;3.90;;;10.30;80.00;;;;;;5054946;28;20544;-77
2022/01/01 07:45:48;;;;;;;3.60;2.60;;;10.30;79.90;;;;;;5054499;28;20915;-77
2022/01/01 07:48:15;;;;;;;3.30;2.07;;;10.40;79.80;;;;;;5054617;28;20933;-76
2022/01/01 07:50:41;;;;;;;4.10;2.23;;;10.20;79.80;;;;;;5055082;28;20502;-77
2022/01/01 07:53:09;;;;;;;2.80;1.67;;;10.30;80.00;;;;;;5054407;28;20458;-77
2022/01/01 07:55:36;;;;;;;2.50;1.47;;;10.60;79.00;;;;;;5054846;28;20504;-77
2022/01/01 07:58:05;;;;;;;2.97;1.93;;;10.80;78.20;;;;;;5054634;28;20438;-77
2022/01/01 08:00:31;;;;;;;2.60;1.57;;;11.00;77.00;;;;;;5054558;28;20450;-77
2022/01/01 08:02:59;;;;;;;2.70;1.57;;;10.90;77.00;;;;;;5054483;28;20492;-77
2022/01/01 08:05:26;;;;;;;2.73;1.60;;;11.00;76.80;;;;;;5054353;28;20544;-76
2022/01/01 08:07:53;;;;;;;2.57;1.60;;;11.00;76.60;;;;;;5054108;28;20458;-77
2022/01/01 08:10:21;;;;;;;2.73;1.53;;;11.00;75.90;;;;;;5053724;28;20496;-77
2022/01/01 08:12:48;;;;;;;2.67;1.60;;;10.90;75.90;;;;;;5054321;28;20453;-77
2022/01/01 08:15:15;;;;;;;3.17;1.40;;;10.70;77.00;;;;;;5054055;28;20489;-76
2022/01/01 08:17:42;;;;;;;2.80;1.60;;;10.70;77.20;;;;;;5054236;28;20461;-77
2022/01/01 08:20:11;;;;;;;2.80;1.40;;;10.70;77.30;;;;;;5054194;28;20454;-77
2022/01/01 08:22:38;;;;;;;2.77;1.77;;;10.90;76.60;;;;;;5053797;28;20872;-76
2022/01/01 08:25:05;;;;;;;2.77;1.63;;;10.90;76.80;;;;;;5054388;28;20490;-77
2022/01/01 08:27:32;;;;;;;2.60;1.57;;;10.80;77.00;;;;;;5054016;28;20497;-77
2022/01/01 08:29:58;;;;;;;2.70;2.00;;;10.70;77.50;;;;;;5053967;28;20442;-77
2022/01/01 08:32:25;;;;;;;2.73;1.70;;;10.60;77.80;;;;;;5053613;28;20946;-76
2022/01/01 08:34:52;;;;;;;2.83;1.70;;;10.70;77.50;;;;;;5053609;28;20982;-77
2022/01/01 08:37:20;;;;;;;3.63;2.30;;;10.90;77.40;;;;;;5053832;28;20830;-77
2022/01/01 08:39:47;;;;;;;3.00;1.80;;;11.00;76.50;;;;;;5053839;28;20446;-76
2022/01/01 08:42:14;;;;;;;2.70;1.97;;;11.10;76.20;;;;;;5053816;28;20453;-77
2022/01/01 08:44:40;;;;;;;3.00;1.87;;;11.10;76.00;;;;;;5053288;28;20997;-77
2022/01/01 08:47:07;;;;;;;2.77;1.70;;;11.20;76.00;;;;;;5053727;28;20450;-76
2022/01/01 08:49:34;;;;;;;2.90;1.70;;;11.30;75.80;;;;;;5053691;28;20442;-77
2022/01/01 08:52:01;;;;;;;2.93;1.77;;;11.40;75.00;;;;;;5053763;28;20481;-77
2022/01/01 08:54:29;;;;;;;2.60;1.60;;;11.50;75.10;;;;;;5053231;28;20989;-77
2022/01/01 08:56:55;;;;;;;2.60;1.47;;;11.90;73.70;;;;;;5054303;28;20495;-77
2022/01/01 08:59:22;;;;;;;3.00;2.00;;;12.40;73.00;;;;;;5053591;28;20446;-77
2022/01/01 09:01:49;;;;;;;2.27;1.20;;;13.00;70.90;;;;;;5053299;28;20854;-77
2022/01/01 09:04:15;;;;;;;2.97;2.07;;;13.30;69.50;;;;;;5053379;28;20490;-77
2022/01/01 09:06:42;;;;;;;3.40;1.90;;;13.50;69.00;;;;;;5053474;28;20500;-77
2022/01/01 09:09:10;;;;;;;3.23;1.80;;;13.60;68.90;;;;;;5053562;28;20442;-77
2022/01/01 09:11:38;;;;;;;3.50;1.47;;;13.50;68.70;;;;;;5053666;28;20541;-77
2022/01/01 09:14:04;;;;;;;2.60;1.43;;;13.40;69.10;;;;;;5052951;28;20864;-77
2022/01/01 09:16:32;;;;;;;3.10;1.47;;;13.20;69.70;;;;;;5053380;28;20446;-77
2022/01/01 09:18:58;;;;;;;2.70;1.70;;;13.10;70.30;;;;;;5053376;28;20556;-77
2022/01/01 09:21:27;;;;;;;2.97;1.30;;;13.10;70.70;;;;;;5053910;28;20442;-77
2022/01/01 09:23:54;;;;;;;2.90;1.33;;;13.10;70.60;;;;;;5057522;28;20541;-77
2022/01/01 09:26:21;;;;;;;2.60;1.70;;;13.20;70.20;;;;;;5057475;28;20473;-77
2022/01/01 09:28:49;;;;;;;2.80;1.60;;;13.20;70.40;;;;;;5057453;28;20886;-77
2022/01/01 09:31:16;;;;;;;2.73;1.80;;;13.10;71.00;;;;;;5057523;28;20450;-76
2022/01/01 09:33:43;;;;;;;2.60;1.70;;;13.10;70.30;;;;;;5057416;28;20856;-77
2022/01/01 09:36:12;;;;;;;2.60;1.47;;;13.00;70.80;;;;;;5057264;28;20466;-77
2022/01/01 09:38:39;;;;;;;2.47;1.40;;;12.90;70.70;;;;;;5056916;28;20446;-77
2022/01/01 09:41:06;;;;;;;2.53;1.33;;;13.00;71.20;;;;;;5057223;28;20862;-76
2022/01/01 09:43:33;;;;;;;2.80;1.63;;;13.00;70.90;;;;;;5057181;28;20492;-77
2022/01/01 09:46:02;;;;;;;2.47;1.30;;;13.00;71.30;;;;;;5056954;28;20488;-77
2022/01/01 09:48:30;;;;;;;2.50;1.50;;;13.10;71.30;;;;;;5057185;28;20823;-77
2022/01/01 09:51:01;;;;;;;2.70;1.40;;;13.10;71.40;;;;;;5057302;28;20446;-77
2022/01/01 09:53:29;;;;;;;2.77;1.70;;;13.20;71.70;;;;;;5056774;28;20430;-77
2022/01/01 09:55:58;;;;;;;2.57;1.47;;;13.30;71.70;;;;;;5056786;28;20524;-77
2022/01/01 09:58:25;;;;;;;2.70;1.10;;;13.40;71.60;;;;;;5056548;28;20541;-77
2022/01/01 10:00:52;;;;;;;2.50;1.30;;;13.50;72.30;;;;;;5056870;28;20500;-77
2022/01/01 10:03:28;;;;;;;2.50;1.40;;;13.60;72.00;;;;;;5056874;28;20442;-77
2022/01/01 10:06:00;;;;;;;2.40;1.20;;;13.70;71.70;;;;;;5056625;28;20535;-77
2022/01/01 10:08:27;;;;;;;2.30;1.10;;;13.80;71.50;;;;;;5056686;28;20477;-77
2022/01/01 10:10:54;;;;;;;2.37;1.17;;;13.90;71.90;;;;;;5056688;28;20442;-77
2022/01/01 10:13:26;;;;;;;2.47;1.23;;;14.00;72.20;;;;;;5056617;28;20454;-77
2022/01/01 10:15:54;;;;;;;2.60;1.30;;;14.00;71.60;;;;;;5069299;22;20990;-75
2022/01/01 10:18:27;;;;;;;2.70;1.27;;;14.30;72.20;;;;;;5036548;28;20445;-75
2022/01/01 10:20:59;;;;;;;2.23;1.10;;;14.50;71.60;;;;;;5036521;28;20797;-75
2022/01/01 10:23:29;;;;;;;2.50;1.20;;;14.60;69.70;;;;;;5036038;28;20497;-76
2022/01/01 10:29:18;;;;;;;2.30;1.13;;;14.90;70.70;;;;;;4956177;29;20438;-75
2022/01/01 10:31:58;;;;;;;2.40;1.20;;;15.10;69.60;;;;;;4955926;29;20497;-75
2022/01/01 10:34:29;;;;;;;2.60;1.20;;;15.20;70.00;;;;;;4998235;28;20450;-76
2022/01/01 10:36:56;;;;;;;2.40;1.07;;;15.30;69.00;;;;;;5036233;28;20443;-76
2022/01/01 10:39:23;;;;;;;2.30;1.00;;;15.20;69.10;;;;;;5036133;28;20439;-76
2022/01/01 10:41:52;;;;;;;3.20;1.00;;;15.20;69.80;;;;;;5036120;28;20470;-75
2022/01/01 10:44:27;;;;;;;2.40;1.03;;;15.50;68.90;;;;;;5035612;28;20443;-75
2022/01/01 10:46:53;;;;;;;2.50;1.07;;;15.50;68.30;;;;;;5036585;28;20489;-75
2022/01/01 10:49:34;;;;;;;2.83;1.00;;;15.30;69.30;;;;;;5035956;28;20459;-76
2022/01/01 10:52:13;;;;;;;2.33;0.93;;;15.20;70.90;;;;;;5035653;28;20780;-76
2022/01/01 10:54:40;;;;;;;4.00;1.00;;;15.30;70.00;;;;;;5035751;28;20514;-76
2022/01/01 10:57:08;;;;;;;2.30;1.00;;;15.50;70.30;;;;;;5035724;28;20455;-76
2022/01/01 10:59:38;;;;;;;2.70;1.30;;;16.50;68.70;;;;;;5035778;28;20526;-76
2022/01/01 11:02:07;;;;;;;2.20;0.80;;;18.00;64.40;;;;;;5035770;28;20447;-76
2022/01/01 11:04:35;;;;;;;2.37;1.00;;;19.70;60.00;;;;;;5035521;28;20510;-76
2022/01/01 11:07:02;;;;;;;2.60;1.07;;;21.00;56.20;;;;;;5035631;28;20509;-76
2022/01/01 11:09:30;;;;;;;2.20;1.00;;;21.40;55.30;;;;;;5035335;28;20486;-76
2022/01/01 11:12:02;;;;;;;2.50;1.10;;;20.70;55.50;;;;;;5035412;28;20505;-76
2022/01/01 11:14:31;;;;;;;2.20;0.97;;;20.10;57.20;;;;;;5035412;28;20442;-76
2022/01/01 11:16:59;;;;;;;2.50;1.00;;;19.60;58.90;;;;;;5035522;28;20432;-76
2022/01/01 11:19:27;;;;;;;2.40;0.90;;;19.10;60.30;;;;;;5035398;28;20443;-76
2022/01/01 11:21:55;;;;;;;2.97;1.63;;;18.60;61.30;;;;;;5035268;28;20451;-75
2022/01/01 11:24:25;;;;;;;2.90;1.80;;;18.30;62.20;;;;;;5035365;28;20451;-76
2022/01/01 11:26:52;;;;;;;3.30;2.00;;;17.90;63.90;;;;;;5035151;28;20538;-76
2022/01/01 11:29:19;;;;;;;2.90;1.67;;;17.50;64.30;;;;;;5035072;28;20451;-76
2022/01/01 11:31:47;;;;;;;3.90;2.77;;;16.90;65.40;;;;;;5035031;28;20482;-76
2022/01/01 11:34:15;;;;;;;3.20;2.27;;;16.50;66.70;;;;;;5035116;28;20447;-76
2022/01/01 11:36:42;;;;;;;3.03;1.97;;;16.70;66.80;;;;;;5034824;28;20529;-76
2022/01/01 11:39:15;;;;;;;2.67;1.40;;;16.40;67.00;;;;;;5035050;28;20451;-76
2022/01/01 11:41:43;;;;;;;3.07;1.30;;;16.00;68.30;;;;;;5035198;28;20431;-75
2022/01/01 11:44:29;;;;;;;2.57;1.60;;;15.80;69.00;;;;;;5035014;28;20513;-76
2022/01/01 11:46:58;;;;;;;2.50;1.37;;;15.50;69.40;;;;;;5034313;28;20439;-76
2022/01/01 11:49:27;;;;;;;2.47;1.30;;;15.60;69.60;;;;;;5034953;28;20586;-76
2022/01/01 11:51:55;;;;;;;3.37;1.67;;;15.40;69.70;;;;;;5034778;28;20534;-76
2022/01/01 11:54:25;;;;;;;2.60;1.40;;;15.20;71.30;;;;;;5034708;28;20897;-76
2022/01/01 11:57:17;;;;;;;2.33;1.30;;;15.20;71.20;;;;;;5034811;28;20428;-75
2022/01/01 11:59:54;;;;;;;2.47;1.37;;;15.50;70.50;;;;;;5031805;28;20547;-76
2022/01/01 12:02:33;;;;;;;2.70;1.43;;;15.80;69.20;;;;;;5034703;28;20436;-76
2022/01/01 12:05:19;;;;;;;2.70;1.53;;;15.80;69.10;;;;;;5035094;28;20482;-76
2022/01/01 12:07:54;;;;;;;2.57;1.50;;;16.20;69.50;;;;;;5034532;28;20965;-76
2022/01/01 12:10:31;;;;;;;2.60;1.27;;;17.30;67.10;;;;;;5034599;28;20438;-76
2022/01/01 12:13:00;;;;;;;2.40;1.00;;;19.00;62.50;;;;;;5034578;28;20442;-76
2022/01/01 12:15:38;;;;;;;2.97;1.10;;;20.80;58.00;;;;;;5034201;28;21041;-76
2022/01/01 12:18:07;;;;;;;2.30;0.90;;;21.90;54.10;;;;;;5034376;28;20461;-76
2022/01/01 12:20:37;;;;;;;2.50;1.30;;;22.30;54.00;;;;;;5034517;28;20447;-76
2022/01/01 12:23:06;;;;;;;2.23;1.17;;;22.70;52.80;;;;;;5035351;28;20451;-77
2022/01/01 12:25:36;;;;;;;2.33;1.00;;;22.60;52.80;;;;;;5055071;28;20459;-77
2022/01/01 12:28:07;;;;;;;2.50;1.40;;;22.80;52.80;;;;;;5050979;28;20466;-76
2022/01/01 12:30:46;;;;;;;2.40;1.10;;;23.60;51.80;;;;;;5034308;28;20482;-76
2022/01/01 12:33:24;;;;;;;2.13;0.90;;;23.60;50.90;;;;;;5034201;28;20463;-76
2022/01/01 12:35:53;;;;;;;2.40;1.00;;;23.70;51.00;;;;;;5034057;28;20490;-76
2022/01/01 12:38:23;;;;;;;2.40;1.20;;;23.90;50.30;;;;;;5033937;28;20459;-76
2022/01/01 12:40:59;;;;;;;2.30;1.10;;;23.20;50.60;;;;;;5033737;28;20973;-77
2022/01/01 12:43:28;;;;;;;2.30;1.10;;;23.40;51.30;;;;;;5033963;28;20454;-77
2022/01/01 12:45:56;;;;;;;2.47;1.23;;;24.00;50.20;;;;;;5033788;28;20490;-75
2022/01/01 12:48:24;;;;;;;2.40;1.10;;;24.70;49.50;;;;;;5034163;28;20509;-76
2022/01/01 12:50:59;;;;;;;2.20;1.10;;;25.70;47.20;;;;;;5033867;28;20479;-77
2022/01/01 12:53:27;;;;;;;2.23;1.00;;;25.80;46.60;;;;;;5033838;28;20435;-77
2022/01/01 12:56:07;;;;;;;2.30;1.10;;;25.70;46.60;;;;;;5033575;28;20471;-77
2022/01/01 12:58:36;;;;;;;2.20;1.00;;;25.90;46.30;;;;;;5033698;28;20428;-77
2022/01/01 13:01:11;;;;;;;2.10;0.90;;;26.00;45.90;;;;;;5033619;28;20873;-77
2022/01/01 13:03:39;;;;;;;2.10;0.87;;;25.80;45.90;;;;;;5033228;28;20501;-77
2022/01/01 13:06:07;;;;;;;2.57;1.03;;;25.40;46.70;;;;;;5034004;28;20533;-77
2022/01/01 13:08:34;;;;;;;2.50;1.00;;;26.20;46.00;;;;;;5033962;28;20444;-77
2022/01/01 13:11:01;;;;;;;2.10;0.90;;;26.40;44.90;;;;;;5033808;28;20497;-77
2022/01/01 13:13:29;;;;;;;2.27;0.93;;;26.70;45.30;;;;;;5034708;28;20451;-77
2022/01/01 13:15:56;;;;;;;3.40;2.17;;;26.90;44.80;;;;;;5033367;28;20483;-77
2022/01/01 13:18:27;;;;;;;2.70;2.00;;;26.60;45.10;;;;;;5033566;28;20447;-77
2022/01/01 13:20:54;;;;;;;2.90;1.63;;;26.80;45.40;;;;;;5033976;28;20470;-77
2022/01/01 13:23:23;;;;;;;2.90;2.10;;;27.10;44.50;;;;;;5033741;28;20444;-77
2022/01/01 13:25:50;;;;;;;3.23;2.33;;;27.40;44.00;;;;;;5033270;28;20541;-76
2022/01/01 13:28:17;;;;;;;2.70;2.10;;;27.60;43.70;;;;;;5033331;28;20493;-77
2022/01/01 13:30:46;;;;;;;2.90;1.97;;;26.60;44.50;;;;;;5033153;28;20807;-77
2022/01/01 13:33:15;;;;;;;2.70;1.20;;;26.30;45.50;;;;;;5033000;28;20853;-76
2022/01/01 13:35:48;;;;;;;2.90;2.30;;;26.20;45.60;;;;;;5033223;28;20550;-76
2022/01/01 13:38:16;;;;;;;4.10;2.70;;;26.10;46.20;;;;;;5033090;28;20966;-76
2022/01/01 13:40:45;;;;;;;4.83;4.43;;;26.20;45.90;;;;;;5033216;28;20454;-76
2022/01/01 13:43:11;;;;;;;3.70;3.10;;;26.00;45.60;;;;;;5032841;28;20957;-76
2022/01/01 13:45:38;;;;;;;3.40;2.70;;;25.10;47.30;;;;;;5033061;28;20493;-76
2022/01/01 13:48:08;;;;;;;3.70;2.93;;;23.90;49.40;;;;;;5033123;28;20447;-77
2022/01/01 13:50:42;;;;;;;3.20;2.37;;;23.20;50.50;;;;;;5033267;28;20455;-76
2022/01/01 13:53:10;;;;;;;4.23;3.57;;;23.00;51.20;;;;;;5033068;28;20527;-76
2022/01/01 13:55:50;;;;;;;4.67;3.33;;;22.80;51.40;;;;;;5032990;28;20518;-77
2022/01/01 13:58:17;;;;;;;4.87;3.23;;;22.20;52.70;;;;;;5033105;28;20423;-76
2022/01/01 14:00:51;;;;;;;3.37;2.83;;;21.20;54.90;;;;;;5033125;28;20454;-76
2022/01/01 14:03:19;;;;;;;3.33;2.27;;;20.40;56.70;;;;;;5033031;28;20431;-76
2022/01/01 14:05:46;;;;;;;3.80;2.60;;;20.00;57.60;;;;;;5032950;28;20517;-76
2022/01/01 14:08:15;;;;;;;3.33;2.33;;;19.60;58.60;;;;;;5033092;28;20546;-77
2022/01/01 14:10:41;;;;;;;2.97;1.87;;;19.50;58.70;;;;;;5036912;28;20457;-76
2022/01/01 14:13:08;;;;;;;2.90;1.97;;;19.50;59.10;;;;;;5036630;28;20497;-76
2022/01/01 14:15:37;;;;;;;2.60;1.60;;;19.80;58.40;;;;;;5036443;28;20529;-77
2022/01/01 14:18:07;;;;;;;2.60;1.83;;;20.20;57.60;;;;;;5036505;28;20450;-76
2022/01/01 14:20:37;;;;;;;3.07;2.00;;;20.60;56.90;;;;;;5036176;28;20451;-76
2022/01/01 14:23:05;;;;;;;3.63;2.40;;;20.70;56.10;;;;;;5036700;28;20497;-76
2022/01/01 14:25:33;;;;;;;3.40;2.10;;;20.20;57.10;;;;;;5036174;28;20470;-76
2022/01/01 14:28:01;;;;;;;3.00;2.17;;;20.20;57.10;;;;;;5036322;28;20521;-77
2022/01/01 14:30:29;;;;;;;2.80;2.10;;;20.30;57.00;;;;;;5036309;28;20498;-76
2022/01/01 14:32:58;;;;;;;3.17;2.17;;;20.30;56.80;;;;;;5036244;28;20482;-76
2022/01/01 14:35:29;;;;;;;3.57;2.20;;;20.20;57.10;;;;;;5036144;28;20525;-76
2022/01/01 14:37:57;;;;;;;4.00;2.97;;;20.00;57.40;;;;;;5036226;28;20844;-76
2022/01/01 14:40:24;;;;;;;3.40;2.77;;;19.70;57.90;;;;;;5036141;28;20496;-77
2022/01/01 14:42:51;;;;;;;3.10;2.30;;;19.40;58.90;;;;;;5036048;28;20447;-76
2022/01/01 14:45:18;;;;;;;3.27;2.40;;;19.10;59.40;;;;;;5035676;28;21049;-76
2022/01/01 14:47:56;;;;;;;3.20;2.27;;;18.80;60.00;;;;;;5035672;28;20990;-76
2022/01/01 14:50:22;;;;;;;3.40;2.40;;;18.50;60.80;;;;;;5036055;28;20494;-76
2022/01/01 14:53:00;;;;;;;2.97;2.00;;;18.20;61.40;;;;;;5035550;28;20447;-76
2022/01/01 14:55:40;;;;;;;3.30;2.43;;;18.00;62.20;;;;;;5035519;28;21070;-76
2022/01/01 14:58:12;;;;;;;3.10;2.23;;;17.70;63.00;;;;;;5035803;28;20431;-76
2022/01/01 15:00:40;;;;;;;3.10;1.97;;;17.40;64.10;;;;;;5035816;28;20432;-76
2022/01/01 15:03:06;;;;;;;4.03;2.40;;;17.20;64.70;;;;;;5035672;28;20505;-76
2022/01/01 15:05:34;;;;;;;3.50;2.50;;;17.00;65.20;;;;;;5035175;28;20896;-76
2022/01/01 15:08:05;;;;;;;3.23;2.10;;;16.80;66.00;;;;;;5035254;28;20954;-76
2022/01/01 15:10:33;;;;;;;2.73;1.83;;;16.60;66.50;;;;;;5035629;28;20599;-76
2022/01/01 15:13:01;;;;;;;3.30;2.10;;;16.40;66.90;;;;;;5035571;28;20513;-76
2022/01/01 15:15:28;;;;;;;3.87;2.67;;;16.30;67.50;;;;;;5035280;28;20598;-76
2022/01/01 15:17:57;;;;;;;3.60;2.57;;;16.10;67.80;;;;;;5035415;28;20447;-76
2022/01/01 15:20:24;;;;;;;3.57;2.30;;;15.90;68.30;;;;;;5034866;28;20455;-76
2022/01/01 15:23:02;;;;;;;3.97;3.43;;;15.80;68.90;;;;;;5034982;28;20602;-76
2022/01/01 15:25:30;;;;;;;3.77;2.87;;;15.60;69.20;;;;;;5035247;28;20467;-76
2022/01/01 15:27:59;;;;;;;3.57;2.70;;;15.50;69.60;;;;;;5035314;28;20498;-76
2022/01/01 15:30:36;;;;;;;3.70;2.97;;;15.30;69.80;;;;;;5034860;28;20942;-76
2022/01/01 15:33:15;;;;;;;4.13;2.90;;;15.20;70.20;;;;;;5035141;28;20431;-76
2022/01/01 15:35:51;;;;;;;3.80;3.30;;;15.10;70.60;;;;;;5035102;28;20476;-76
2022/01/01 15:38:25;;;;;;;4.17;3.40;;;14.90;70.70;;;;;;5035080;28;20450;-76
2022/01/01 15:41:03;;;;;;;4.03;2.90;;;14.80;70.80;;;;;;5034980;28;20508;-76
2022/01/01 15:43:32;;;;;;;3.83;2.70;;;14.70;71.00;;;;;;5035021;28;20866;-76
2022/01/01 15:46:00;;;;;;;5.13;2.60;;;14.50;71.50;;;;;;5034704;28;20463;-76
2022/01/01 15:48:27;;;;;;;3.50;2.50;;;14.40;71.80;;;;;;5034997;28;20450;-76
2022/01/01 15:50:54;;;;;;;3.77;2.67;;;14.30;71.90;;;;;;5034848;28;20471;-76
2022/01/01 15:53:23;;;;;;;4.03;3.07;;;14.30;72.10;;;;;;5034788;28;20501;-76
2022/01/01 15:55:54;;;;;;;2.90;2.30;;;14.10;72.40;;;;;;5034608;28;20467;-76
2022/01/01 15:58:23;;;;;;;3.50;2.60;;;14.10;72.50;;;;;;5034723;28;20866;-76
2022/01/01 16:00:54;;;;;;;3.73;2.80;;;14.00;72.60;;;;;;5034330;28;20939;-76
2022/01/01 16:03:31;;;;;;;3.47;2.53;;;13.90;72.90;;;;;;5034285;28;20447;-76
2022/01/01 16:05:59;;;;;;;3.20;2.50;;;13.90;73.10;;;;;;5034395;28;20521;-76
2022/01/01 16:08:28;;;;;;;3.40;2.80;;;13.90;73.00;;;;;;5034449;28;20479;-76
2022/01/01 16:10:57;;;;;;;4.17;3.03;;;13.80;73.20;;;;;;5034345;28;20501;-76
2022/01/01 16:13:27;;;;;;;3.50;2.73;;;13.70;73.00;;;;;;5034356;28;20443;-76
2022/01/01 16:16:05;;;;;;;3.90;3.10;;;13.70;73.00;;;;;;5057950;22;20483;-76
2022/01/01 16:18:37;;;;;;;4.10;3.70;;;13.60;73.00;;;;;;5034380;28;20454;-77
2022/01/01 16:21:05;;;;;;;4.60;4.20;;;13.50;73.20;;;;;;5034240;28;20489;-77
2022/01/01 16:23:32;;;;;;;5.37;4.10;;;13.50;73.40;;;;;;5034146;28;20479;-77
2022/01/01 16:25:59;;;;;;;6.13;5.53;;;13.40;73.70;;;;;;5033975;28;20467;-77
2022/01/01 16:28:26;;;;;;;5.23;4.73;;;13.40;73.50;;;;;;5034264;28;20450;-77
2022/01/01 16:30:53;;;;;;;6.97;6.27;;;13.30;73.50;;;;;;5033714;28;20447;-77
2022/01/01 16:33:22;;;;;;;6.40;5.67;;;13.20;73.50;;;;;;5033769;28;20460;-77
2022/01/01 16:35:51;;;;;;;6.13;5.53;;;13.20;73.50;;;;;;5034172;28;20471;-77
2022/01/01 16:38:19;;;;;;;6.10;5.30;;;13.10;73.60;;;;;;5034131;28;20447;-77
2022/01/01 16:40:51;;;;;;;5.83;5.23;;;13.00;74.00;;;;;;5033840;28;20501;-76
2022/01/01 16:43:19;;;;;;;4.20;3.60;;;13.00;74.30;;;;;;5033794;28;20841;-77
2022/01/01 16:45:50;;;;;;;5.23;3.90;;;13.00;74.20;;;;;;5033740;28;20831;-77
2022/01/01 16:48:26;;;;;;;5.90;5.10;;;13.00;74.30;;;;;;5033313;28;20966;-77
2022/01/01 16:50:57;;;;;;;5.23;4.10;;;13.00;74.70;;;;;;5033592;28;20837;-77
2022/01/01 16:53:24;;;;;;;4.03;3.40;;;12.90;74.50;;;;;;5033863;28;20450;-77
2022/01/01 16:55:55;;;;;;;4.00;3.57;;;12.90;74.60;;;;;;5033818;28;20979;-76
2022/01/01 16:58:25;;;;;;;4.10;3.00;;;12.80;74.60;;;;;;5033801;28;20502;-74
2022/01/01 17:00:54;;;;;;;3.73;2.83;;;12.80;75.00;;;;;;5035079;28;20534;-76